Time;durP1;ratioP1;P1;durP2;ratioP2;P2;SDS_P1;SDS_P2;PMS_P1;PMS_P2;Temp;Humidity;BMP_temperature;BMP_pressure;BME280_temperature;BME280_humidity;BME280_pressure;Samples;Min_cycle;Max_cycle;Signal;HPM_P1;HPM_P2
2022/05/04 00:02:13;;;;;;;5.00;1.52;;;;;;;19.86;32.80;101865.63;16141881;19;129544;-55
2022/05/04 00:07:35;;;;;;;2.30;1.27;;;;;;;19.84;32.92;101873.34;16140877;19;129386;-55
2022/05/04 00:12:58;;;;;;;3.22;1.13;;;;;;;19.83;32.74;101866.94;16139549;19;130301;-55
2022/05/04 00:18:20;;;;;;;4.57;1.83;;;;;;;19.80;32.88;101866.56;16140628;19;130066;-55
2022/05/04 00:23:42;;;;;;;2.67;1.35;;;;;;;19.76;32.46;101860.63;16140495;19;129546;-54
2022/05/04 00:29:03;;;;;;;3.30;1.83;;;;;;;19.77;32.41;101867.03;16138966;19;129205;-56
2022/05/04 00:34:26;;;;;;;3.00;1.50;;;;;;;19.74;32.43;101862.78;16139373;19;129578;-53
2022/05/04 00:39:47;;;;;;;2.40;1.20;;;;;;;19.74;32.62;101861.94;16136275;19;129141;-52
2022/05/04 00:45:10;;;;;;;3.10;1.67;;;;;;;19.68;32.85;101864.56;16139238;19;129646;-56
2022/05/04 00:50:32;;;;;;;3.30;1.60;;;;;;;19.67;32.44;101862.88;16133572;19;128911;-54
2022/05/04 00:55:54;;;;;;;2.25;1.35;;;;;;;19.65;32.85;101862.25;16138010;19;130688;-52
2022/05/04 01:01:17;;;;;;;5.22;1.50;;;;;;;19.64;32.46;101857.78;16136164;19;129638;-54
2022/05/04 01:06:39;;;;;;;3.70;1.30;;;;;;;19.63;32.63;101861.63;16137643;19;129640;-53
2022/05/04 01:12:01;;;;;;;2.25;1.20;;;;;;;19.62;32.63;101864.66;16133832;19;129936;-53
2022/05/04 01:17:23;;;;;;;3.55;1.52;;;;;;;19.62;32.49;101859.09;16131480;19;130865;-56
2022/05/04 01:22:45;;;;;;;3.33;1.45;;;;;;;19.60;32.32;101853.75;16138500;19;129563;-52
2022/05/04 01:28:07;;;;;;;5.10;1.52;;;;;;;19.56;32.77;101858.09;16135845;19;129291;-52
2022/05/04 01:33:28;;;;;;;3.53;1.52;;;;;;;19.54;32.37;101849.13;16137343;19;130329;-54
2022/05/04 01:38:50;;;;;;;3.00;1.15;;;;;;;19.53;32.31;101855.75;16135995;19;129204;-56
2022/05/04 01:44:12;;;;;;;3.47;1.40;;;;;;;19.53;32.34;101847.44;16137757;19;129093;-54
2022/05/04 01:49:34;;;;;;;3.47;1.05;;;;;;;19.52;32.50;101859.63;16133110;19;129372;-54
2022/05/04 01:54:56;;;;;;;1.63;1.10;;;;;;;19.50;32.51;101850.66;16132882;19;129195;-54
2022/05/04 02:00:18;;;;;;;2.97;1.20;;;;;;;19.50;32.66;101845.13;16133654;19;129888;-54
2022/05/04 02:05:41;;;;;;;2.30;1.25;;;;;;;19.48;32.27;101847.25;16134892;19;129365;-54
2022/05/04 02:11:03;;;;;;;4.00;1.23;;;;;;;19.46;32.65;101854.97;16142918;19;130203;-51
2022/05/04 02:16:25;;;;;;;2.83;1.38;;;;;;;19.46;32.23;101850.28;16144967;19;129480;-56
2022/05/04 02:21:47;;;;;;;3.58;1.13;;;;;;;19.43;32.65;101847.13;16150404;19;129817;-51
2022/05/04 02:27:09;;;;;;;2.50;1.08;;;;;;;19.42;32.18;101839.88;16144037;19;130080;-52
2022/05/04 02:32:30;;;;;;;3.08;1.00;;;;;;;19.41;32.65;101840.94;16142856;19;131246;-54
2022/05/04 02:37:55;;;;;;;1.15;0.90;;;;;;;19.38;32.52;101845.88;16145317;19;129875;-55
2022/05/04 02:43:16;;;;;;;3.63;1.30;;;;;;;19.37;32.42;101841.41;16142254;19;129630;-57
2022/05/04 02:48:38;;;;;;;3.38;1.02;;;;;;;19.35;32.15;101840.78;16146362;19;130492;-54
2022/05/04 02:54:00;;;;;;;2.95;1.23;;;;;;;19.35;32.22;101837.16;16145287;19;130427;-55
2022/05/04 02:59:22;;;;;;;2.45;0.98;;;;;;;19.34;32.56;101833.53;16141117;19;129349;-56
2022/05/04 03:04:43;;;;;;;3.00;1.10;;;;;;;19.34;32.22;101830.75;16143024;19;129797;-54
2022/05/04 03:10:06;;;;;;;4.10;1.02;;;;;;;19.33;32.17;101823.50;16143352;19;130114;-52
2022/05/04 03:15:28;;;;;;;3.17;1.10;;;;;;;19.33;32.29;101815.19;16139724;19;129941;-55
2022/05/04 03:20:49;;;;;;;2.92;1.27;;;;;;;19.31;32.46;101817.38;16144445;19;129457;-53
2022/05/04 03:26:11;;;;;;;2.80;1.02;;;;;;;19.30;32.24;101817.56;16145167;19;129764;-56
2022/05/04 03:31:33;;;;;;;4.50;1.30;;;;;;;19.29;32.26;101815.88;16140995;19;129947;-56
2022/05/04 03:36:57;;;;;;;3.78;1.02;;;;;;;19.28;32.48;101820.59;16144192;19;129661;-55
2022/05/04 03:42:19;;;;;;;3.65;0.95;;;;;;;19.26;32.48;101817.19;16142070;19;129322;-54
2022/05/04 03:47:41;;;;;;;4.95;1.25;;;;;;;19.24;32.48;101813.78;16146071;19;130562;-52
2022/05/04 03:53:02;;;;;;;2.70;1.00;;;;;;;19.22;32.44;101815.94;16137155;19;131305;-55
2022/05/04 03:58:24;;;;;;;2.80;0.98;;;;;;;19.22;32.25;101810.38;16141443;19;129305;-53
2022/05/04 04:03:46;;;;;;;3.22;1.05;;;;;;;19.22;32.37;101810.38;16142742;19;129362;-53
2022/05/04 04:09:08;;;;;;;2.55;0.80;;;;;;;19.20;32.03;101807.00;16140929;19;129290;-56
2022/05/04 04:14:30;;;;;;;3.88;1.02;;;;;;;19.19;32.03;101813.63;16137994;19;129263;-55
2022/05/04 04:21:50;;;;;;;3.58;1.10;;;;;;;19.18;32.49;101814.69;16138372;19;129060;-55
2022/05/04 04:25:34;;;;;;;2.47;1.05;;;;;;;19.18;32.39;101809.13;16141214;19;129460;-54
2022/05/04 04:30:56;;;;;;;4.00;1.00;;;;;;;19.17;32.42;101821.31;16136560;19;130234;-52
2022/05/04 04:36:18;;;;;;;2.45;0.90;;;;;;;19.15;32.02;101817.91;16141146;19;129328;-55
2022/05/04 04:41:40;;;;;;;1.85;0.98;;;;;;;19.15;32.31;101824.28;16138958;19;129405;-56
2022/05/04 04:47:02;;;;;;;3.10;1.00;;;;;;;19.13;32.17;101818.16;16140936;19;129479;-51
2022/05/04 04:52:24;;;;;;;2.38;0.90;;;;;;;19.13;32.10;101825.59;16135892;19;132419;-53
2022/05/04 04:57:47;;;;;;;2.70;0.95;;;;;;;19.11;32.04;101831.38;16138982;19;130477;-54
2022/05/04 05:03:09;;;;;;;4.47;1.02;;;;;;;19.12;32.18;101826.69;16137646;19;129547;-54
2022/05/04 05:08:31;;;;;;;1.67;0.63;;;;;;;19.15;32.12;101827.06;16137648;19;129726;-52
2022/05/04 05:19:33;;;;;;;1.38;0.60;;;;;;;19.83;31.63;101838.31;16139822;19;130410;-53
2022/05/04 05:24:55;;;;;;;1.48;0.40;;;;;;;20.20;31.53;101838.31;16138481;19;129696;-54
2022/05/04 05:30:16;;;;;;;1.25;0.52;;;;;;;20.47;31.01;101837.09;16134102;19;129444;-52
2022/05/04 05:35:38;;;;;;;2.88;0.75;;;;;;;20.66;30.99;101829.53;16134543;19;129623;-51
2022/05/04 05:41:01;;;;;;;2.17;0.80;;;;;;;20.73;31.19;101841.38;16137551;19;128773;-49
2022/05/04 05:46:23;;;;;;;1.98;0.70;;;;;;;20.73;32.08;101842.25;16133474;19;129427;-50
2022/05/04 05:51:45;;;;;;;4.10;0.90;;;;;;;20.71;32.81;101838.00;16133008;19;129518;-48
2022/05/04 05:57:06;;;;;;;2.22;0.80;;;;;;;20.68;33.65;101844.00;16135900;19;129433;-51
2022/05/04 06:02:28;;;;;;;2.83;0.80;;;;;;;20.68;33.65;101847.66;16131833;19;129730;-46
2022/05/04 06:07:50;;;;;;;2.05;1.00;;;;;;;20.66;34.58;101851.78;16134701;19;129992;-47
2022/05/04 06:13:12;;;;;;;5.00;0.85;;;;;;;20.63;35.11;101852.25;16127890;19;132631;-50
2022/05/04 06:18:34;;;;;;;4.18;0.98;;;;;;;20.59;35.66;101858.28;16134453;19;129005;-48
2022/05/04 06:23:55;;;;;;;3.08;0.60;;;;;;;20.58;36.12;101862.13;16133152;19;128987;-50
2022/05/04 06:29:17;;;;;;;2.22;1.00;;;;;;;20.54;36.32;101860.94;16132183;19;129393;-49
2022/05/04 06:34:39;;;;;;;3.42;1.13;;;;;;;20.52;36.72;101868.66;16131538;19;128957;-47
2022/05/04 06:40:01;;;;;;;2.85;0.90;;;;;;;20.51;36.56;101872.50;16131583;19;130037;-46
2022/05/04 06:45:22;;;;;;;2.30;0.80;;;;;;;20.47;36.70;101867.66;16133986;19;132124;-47
2022/05/04 06:50:44;;;;;;;2.03;0.80;;;;;;;20.44;37.08;101866.19;16131556;19;129238;-50
2022/05/04 06:56:06;;;;;;;3.97;0.95;;;;;;;20.45;36.93;101856.75;16132941;19;129360;-50
2022/05/04 07:01:28;;;;;;;4.88;1.30;;;;;;;20.47;37.19;101862.09;16143617;19;129384;-53
2022/05/04 07:06:50;;;;;;;2.95;1.10;;;;;;;20.49;37.31;101862.72;16146067;19;129714;-46
2022/05/04 07:12:11;;;;;;;4.68;1.25;;;;;;;20.50;37.46;101862.47;16142545;19;129783;-48
2022/05/04 07:17:33;;;;;;;4.05;1.13;;;;;;;20.54;37.38;101866.50;16140542;19;129511;-47
2022/05/04 07:22:55;;;;;;;7.07;1.33;;;;;;;20.68;36.81;101857.91;16145489;19;129657;-49
2022/05/04 07:28:17;;;;;;;4.60;1.10;;;;;;;20.96;36.65;101859.22;16141863;19;130315;-48
2022/05/04 07:33:39;;;;;;;5.32;1.40;;;;;;;21.27;35.88;101860.81;16137170;19;130422;-51
2022/05/04 07:39:00;;;;;;;3.97;0.95;;;;;;;21.45;35.59;101870.16;16145126;19;130036;-52
2022/05/04 07:44:23;;;;;;;4.03;1.30;;;;;;;21.51;35.07;101871.97;16144788;19;129487;-48
2022/05/04 07:49:44;;;;;;;4.97;1.48;;;;;;;21.47;34.75;101871.59;16142642;19;129264;-51
2022/05/04 07:55:07;;;;;;;6.38;1.67;;;;;;;21.42;34.87;101876.19;16140758;19;129663;-49
2022/05/04 08:06:11;;;;;;;5.63;1.67;;;;;;;21.25;34.66;101876.91;16141060;19;129044;-50
2022/05/04 08:11:33;;;;;;;5.78;1.52;;;;;;;21.13;34.39;101865.78;16136703;19;128817;-48
2022/05/04 08:16:55;;;;;;;7.40;1.73;;;;;;;21.06;34.46;101878.94;16137018;19;129634;-54
2022/05/04 08:22:17;;;;;;;7.80;1.58;;;;;;;21.03;34.50;101876.66;16141824;19;130494;-52
2022/05/04 08:27:39;;;;;;;6.97;1.75;;;;;;;20.97;34.50;101872.91;16141031;19;130790;-50
2022/05/04 08:33:00;;;;;;;6.10;1.85;;;;;;;20.92;34.61;101869.16;16137570;19;128970;-52
2022/05/04 08:38:22;;;;;;;7.60;2.10;;;;;;;20.86;34.92;101862.63;16140025;19;130102;-53
2022/05/04 08:43:46;;;;;;;6.07;1.63;;;;;;;20.81;34.87;101866.09;16135420;19;129499;-46
2022/05/04 08:49:11;;;;;;;5.03;1.40;;;;;;;20.80;35.30;101866.34;16136883;19;128922;-54
2022/05/04 08:54:32;;;;;;;8.57;1.87;;;;;;;20.81;35.21;101863.31;16133415;19;129401;-59
2022/05/04 08:59:54;;;;;;;4.38;1.70;;;;;;;20.82;35.41;101856.66;16138637;19;129720;-55
2022/05/04 09:05:20;;;;;;;5.93;1.45;;;;;;;20.81;35.40;101854.97;16138036;19;129170;-55
2022/05/04 09:10:44;;;;;;;6.50;1.90;;;;;;;20.82;35.14;101853.88;16137646;19;129714;-49
2022/05/04 09:16:06;;;;;;;6.18;1.92;;;;;;;20.82;35.06;101853.88;16131056;19;130744;-55
2022/05/04 09:21:28;;;;;;;5.15;1.52;;;;;;;20.81;35.20;101851.34;16135993;19;129536;-57
2022/05/04 09:26:55;;;;;;;5.93;1.63;;;;;;;20.79;35.02;101851.59;16132688;19;129247;-56
2022/05/04 09:32:17;;;;;;;5.13;1.50;;;;;;;20.78;34.97;101849.03;16133923;19;129428;-47
2022/05/04 09:49:13;;;;;;;3.67;1.42;;;;;;;20.75;35.04;101840.06;16135484;19;129404;-56
2022/05/04 09:54:34;;;;;;;20.52;2.58;;;;;;;20.76;35.21;101838.16;16127359;19;130053;-55
2022/05/04 09:59:56;;;;;;;5.20;1.40;;;;;;;20.73;34.98;101838.59;16130610;19;129489;-51
2022/05/04 10:05:19;;;;;;;6.63;1.90;;;;;;;20.65;34.89;101838.94;16126745;19;129703;-55
2022/05/04 10:10:43;;;;;;;3.88;1.88;;;;;;;20.57;34.53;101834.59;16130297;19;129676;-52
2022/05/04 10:16:08;;;;;;;5.40;2.35;;;;;;;20.50;34.47;101826.34;16129689;19;130746;-56
2022/05/04 10:21:30;;;;;;;6.88;2.42;;;;;;;20.48;34.34;101833.22;16139630;19;129162;-50
2022/05/04 10:27:02;;;;;;;5.15;2.50;;;;;;;20.47;34.18;101832.38;16129197;19;129639;-54
2022/05/04 10:32:43;;;;;;;5.30;2.08;;;;;;;20.50;33.90;101822.69;16139378;19;129436;-52
2022/05/04 10:38:10;;;;;;;6.30;2.00;;;;;;;20.50;34.09;101815.22;16150075;19;129673;-48
2022/05/04 10:44:01;;;;;;;8.32;2.30;;;;;;;20.51;33.70;101822.47;16144460;19;129944;-51
2022/05/04 10:49:35;;;;;;;4.55;2.00;;;;;;;20.54;33.88;101821.16;16148448;19;129481;-53
2022/05/04 10:54:57;;;;;;;6.70;1.73;;;;;;;20.52;33.93;101818.63;16145068;19;129409;-49
2022/05/04 11:00:20;;;;;;;3.42;1.60;;;;;;;20.52;34.14;101817.75;16149454;19;130250;-51
2022/05/04 11:05:47;;;;;;;3.88;1.65;;;;;;;20.53;34.27;101814.75;16147312;19;129301;-50
2022/05/04 11:11:09;;;;;;;3.60;1.77;;;;;;;20.52;34.12;101809.41;16146769;19;130413;-52
2022/05/04 11:16:31;;;;;;;6.38;1.75;;;;;;;20.52;33.79;101813.06;16144508;19;129339;-52
2022/05/04 11:21:54;;;;;;;3.78;1.50;;;;;;;20.52;34.02;101801.06;16148581;19;129262;-49
2022/05/04 11:27:16;;;;;;;5.15;2.05;;;;;;;20.49;33.96;101796.84;16146326;19;129695;-52
2022/05/04 11:32:39;;;;;;;3.72;1.60;;;;;;;20.48;33.88;101795.16;16141388;19;129573;-54
2022/05/04 11:38:01;;;;;;;7.07;2.08;;;;;;;20.47;33.60;101779.56;16146555;19;129214;-56
2022/05/04 11:43:33;;;;;;;5.40;1.80;;;;;;;20.45;33.59;101782.59;16141855;19;129606;-54
2022/05/04 11:48:57;;;;;;;3.47;1.52;;;;;;;20.45;33.67;101771.47;16144659;19;129048;-56
2022/05/04 11:54:24;;;;;;;5.07;1.75;;;;;;;20.42;33.50;101771.94;16139695;19;129263;-53
2022/05/04 11:59:46;;;;;;;5.97;1.42;;;;;;;20.43;34.10;101770.84;16144137;19;128815;-51
2022/05/04 12:05:09;;;;;;;5.32;1.45;;;;;;;20.45;34.03;101770.59;16139036;19;129514;-53
2022/05/04 12:10:34;;;;;;;6.07;1.38;;;;;;;20.45;34.11;101762.25;16143170;19;129147;-54
2022/05/04 12:15:56;;;;;;;5.13;1.70;;;;;;;20.45;33.72;101751.16;16138336;19;131880;-53
2022/05/04 12:21:22;;;;;;;4.97;1.90;;;;;;;20.43;33.67;101753.34;16141642;19;129867;-53
2022/05/04 12:26:43;;;;;;;6.88;1.30;;;;;;;20.41;33.94;101750.78;16137617;19;129656;-50
2022/05/04 12:37:50;;;;;;;6.95;1.60;;;;;;;20.41;33.86;101745.22;16135716;19;130728;-51
2022/05/04 12:43:12;;;;;;;7.38;1.83;;;;;;;20.41;33.89;101738.84;16125089;19;133598;-51
2022/05/04 12:48:38;;;;;;;5.50;1.90;;;;;;;20.42;33.97;101733.03;16139014;19;130086;-52
2022/05/04 12:54:00;;;;;;;3.45;1.40;;;;;;;20.42;33.78;101730.25;16133670;19;129637;-51
2022/05/04 12:59:22;;;;;;;7.50;1.60;;;;;;;20.44;34.10;101728.09;16137724;19;129317;-53
2022/05/04 13:04:43;;;;;;;8.23;1.73;;;;;;;20.44;33.98;101732.78;16135017;19;129300;-51
2022/05/04 13:10:06;;;;;;;3.72;1.23;;;;;;;20.44;34.06;101716.09;16138196;19;129126;-53
2022/05/04 13:15:27;;;;;;;6.20;1.40;;;;;;;20.45;33.62;101712.25;16134433;19;129789;-53
2022/05/04 13:20:49;;;;;;;5.13;1.48;;;;;;;20.45;33.84;101710.31;16139433;19;129479;-53
2022/05/04 13:26:14;;;;;;;6.03;1.55;;;;;;;20.48;33.67;101706.22;16136685;19;129445;-54
2022/05/04 13:31:35;;;;;;;3.78;1.35;;;;;;;20.49;33.64;101704.28;16135168;19;129422;-50
2022/05/04 13:36:57;;;;;;;2.75;1.20;;;;;;;20.50;34.13;101697.63;16134949;19;129491;-52
2022/05/04 13:42:19;;;;;;;4.65;1.40;;;;;;;20.53;33.66;101697.16;16133961;19;130017;-52
2022/05/04 13:47:41;;;;;;;3.33;1.20;;;;;;;20.55;34.17;101701.41;16129432;19;129756;-52
2022/05/04 13:53:15;;;;;;;3.90;1.30;;;;;;;20.55;33.88;101698.63;16132625;19;129406;-53
2022/05/04 13:58:37;;;;;;;3.40;1.30;;;;;;;20.56;34.07;101691.94;16132481;19;129487;-52
2022/05/04 14:03:58;;;;;;;2.00;1.00;;;;;;;20.58;34.12;101692.56;16131163;19;129346;-55
2022/05/04 14:09:20;;;;;;;2.67;1.27;;;;;;;20.57;33.59;101690.84;16144252;19;130089;-51
2022/05/04 14:20:23;;;;;;;4.60;1.30;;;;;;;20.59;33.39;101693.41;16149221;19;129220;-48
2022/05/04 14:25:44;;;;;;;5.82;1.20;;;;;;;20.60;33.51;101689.56;16147700;19;129835;-50
2022/05/04 14:31:07;;;;;;;3.83;1.13;;;;;;;20.58;33.74;101695.34;16146996;19;129787;-49
2022/05/04 14:36:28;;;;;;;2.40;1.00;;;;;;;20.59;33.51;101685.06;16149027;19;129639;-53
2022/05/04 14:41:51;;;;;;;1.38;1.05;;;;;;;20.59;33.36;101687.84;16148521;19;129951;-53
2022/05/04 14:47:13;;;;;;;3.00;1.10;;;;;;;20.60;33.34;101686.78;16141787;19;129365;-50
2022/05/04 14:52:35;;;;;;;3.60;1.00;;;;;;;20.59;33.38;101685.06;16147550;19;129452;-53
2022/05/04 14:57:57;;;;;;;1.88;1.00;;;;;;;20.57;33.24;101687.25;16147192;19;129507;-51
2022/05/04 15:09:03;;;;;;;1.60;0.70;;;;;;;20.57;33.19;101692.81;16146762;19;129974;-53
2022/05/04 15:14:25;;;;;;;3.03;0.63;;;;;;;20.56;33.18;101689.16;16140034;19;129534;-51
2022/05/04 15:19:46;;;;;;;2.15;1.00;;;;;;;20.56;33.17;101689.16;16136376;19;129994;-52
2022/05/04 15:25:09;;;;;;;2.75;0.82;;;;;;;20.58;33.25;101695.34;16141468;19;129834;-52
2022/05/04 15:30:30;;;;;;;2.30;0.73;;;;;;;20.59;32.78;101687.84;16143528;19;129596;-53
2022/05/04 15:35:52;;;;;;;1.33;0.85;;;;;;;20.58;32.74;101689.78;16136809;19;129767;-54
2022/05/04 15:41:14;;;;;;;3.13;0.88;;;;;;;20.54;32.86;101694.13;16140791;19;128894;-50
2022/05/04 15:46:36;;;;;;;3.58;0.77;;;;;;;20.53;33.17;101686.88;16141981;19;129476;-54
2022/05/04 15:51:58;;;;;;;1.63;0.82;;;;;;;20.52;32.89;101699.09;16143566;19;129487;-53
2022/05/04 15:57:20;;;;;;;1.25;0.70;;;;;;;20.52;33.05;101695.44;16136949;19;130934;-50
2022/05/04 16:08:23;;;;;;;2.78;0.77;;;;;;;20.49;33.13;101688.44;16140369;19;129579;-54
2022/05/04 16:13:45;;;;;;;1.63;0.95;;;;;;;20.50;32.76;101694.84;16136451;19;130481;-48
2022/05/04 16:25:00;;;;;;;1.63;0.70;;;;;;;20.43;32.78;101698.59;16133742;19;129441;-55
2022/05/04 16:30:23;;;;;;;1.95;1.02;;;;;;;20.43;32.89;101698.59;16125597;19;129387;-46
2022/05/04 16:35:46;;;;;;;3.35;0.98;;;;;;;20.42;32.63;101696.06;16123389;19;130153;-50
2022/05/04 16:41:08;;;;;;;3.47;0.90;;;;;;;20.41;32.48;101691.59;16127867;19;129720;-49
2022/05/04 16:46:29;;;;;;;2.60;0.75;;;;;;;20.42;32.91;101701.63;16127211;19;129951;-54
2022/05/04 16:51:51;;;;;;;1.92;1.10;;;;;;;20.43;32.45;101695.81;16125392;19;130280;-54
2022/05/04 16:57:13;;;;;;;1.48;0.80;;;;;;;20.44;32.57;101702.19;16132132;19;129533;-51
2022/05/04 17:02:35;;;;;;;2.63;1.13;;;;;;;20.43;32.35;101697.75;16138262;19;129055;-54
2022/05/04 17:07:57;;;;;;;2.20;1.27;;;;;;;20.41;32.40;101702.72;16136443;19;129574;-55
2022/05/04 17:13:19;;;;;;;1.63;0.90;;;;;;;20.42;32.34;101707.19;16133902;19;129532;-53
2022/05/04 17:18:42;;;;;;;2.15;1.02;;;;;;;20.39;32.55;101702.09;16134018;19;129118;-53
2022/05/04 17:24:05;;;;;;;3.35;1.60;;;;;;;20.37;32.47;101704.25;16131883;19;129987;-55
2022/05/04 17:29:27;;;;;;;1.42;1.10;;;;;;;20.34;32.76;101696.41;16127677;19;129687;-51
2022/05/04 17:40:29;;;;;;;6.70;1.30;;;;;;;20.29;32.76;101716.56;16137613;19;129454;-52
2022/05/04 17:45:51;;;;;;;7.07;1.20;;;;;;;20.31;32.98;101708.00;16136628;19;130180;-49
2022/05/04 17:51:13;;;;;;;5.38;1.30;;;;;;;20.32;32.62;101713.31;16135395;19;129266;-47
2022/05/04 17:56:35;;;;;;;3.55;1.20;;;;;;;20.32;32.80;101720.78;16128903;19;129363;-53
2022/05/04 18:07:38;;;;;;;2.63;1.00;;;;;;;20.32;32.65;101729.13;16134959;19;129522;-48
2022/05/04 18:13:00;;;;;;;2.60;0.93;;;;;;;20.29;32.60;101731.31;16131609;19;129038;-45
2022/05/04 18:18:22;;;;;;;3.80;1.13;;;;;;;20.28;32.75;101739.88;16134027;19;129615;-52
2022/05/04 18:23:43;;;;;;;2.90;1.25;;;;;;;20.27;33.11;101743.75;16135499;19;129547;-50
2022/05/04 18:29:06;;;;;;;2.72;1.15;;;;;;;20.27;32.95;101752.06;16126797;19;129811;-49
2022/05/04 18:34:28;;;;;;;3.45;1.10;;;;;;;20.24;32.70;101745.06;16130454;19;129170;-52
2022/05/04 18:39:50;;;;;;;3.88;1.30;;;;;;;20.23;33.15;101771.16;16132398;19;129923;-52
2022/05/04 18:45:12;;;;;;;3.28;1.10;;;;;;;20.22;32.98;101755.56;16132437;19;129378;-51
2022/05/04 18:50:38;;;;;;;4.40;1.30;;;;;;;20.23;33.03;101760.03;16136475;19;129882;-50
2022/05/04 18:55:59;;;;;;;1.88;1.15;;;;;;;20.24;33.36;101774.81;16142974;19;129434;-48
2022/05/04 19:01:26;;;;;;;4.95;1.23;;;;;;;20.24;33.01;101777.56;16148387;19;129916;-47
2022/05/04 19:06:48;;;;;;;1.88;0.93;;;;;;;20.23;32.85;101776.72;16147794;19;131577;-47
2022/05/04 19:12:10;;;;;;;1.90;1.10;;;;;;;20.24;33.32;101785.91;16140451;19;129304;-51
2022/05/04 19:17:32;;;;;;;2.92;1.20;;;;;;;20.25;33.08;101788.44;16144538;19;129516;-51
2022/05/04 19:23:03;;;;;;;3.25;1.23;;;;;;;20.24;32.96;101795.09;16143575;19;129479;-50
2022/05/04 19:28:27;;;;;;;3.03;1.13;;;;;;;20.23;32.79;101798.94;16143448;19;129783;-49
2022/05/04 19:33:49;;;;;;;6.13;1.17;;;;;;;20.21;33.11;101812.22;16142300;19;130398;-52
2022/05/04 19:39:11;;;;;;;7.85;1.25;;;;;;;20.20;33.17;101810.53;16145060;19;129404;-48
2022/05/04 19:44:33;;;;;;;4.13;1.02;;;;;;;20.22;33.44;101819.47;16144813;19;129094;-51
2022/05/04 19:49:55;;;;;;;1.92;1.20;;;;;;;20.22;33.26;101819.47;16139972;19;129528;-50
2022/05/04 19:55:18;;;;;;;2.85;1.38;;;;;;;20.22;33.52;101825.03;16137345;19;129925;-49
2022/05/04 20:00:40;;;;;;;2.97;1.20;;;;;;;20.22;33.52;101835.31;16139197;19;131427;-48
2022/05/04 20:06:02;;;;;;;5.95;1.60;;;;;;;20.21;33.75;101834.44;16139152;19;131587;-46
2022/05/04 20:11:24;;;;;;;1.83;1.17;;;;;;;20.22;33.65;101840.88;16139641;19;128929;-48
2022/05/04 20:16:45;;;;;;;6.38;1.20;;;;;;;20.20;33.25;101843.84;16132796;19;129545;-48
2022/05/04 20:22:08;;;;;;;3.45;0.95;;;;;;;20.21;33.41;101848.34;16137399;19;129247;-48
2022/05/04 20:27:29;;;;;;;3.80;1.30;;;;;;;20.22;33.88;101850.03;16136893;19;129332;-49
2022/05/04 20:32:51;;;;;;;2.03;0.90;;;;;;;20.22;33.58;101857.53;16137679;19;129314;-49
2022/05/04 20:43:54;;;;;;;8.00;0.82;;;;;;;20.24;33.91;101861.78;16137158;19;129416;-46
2022/05/04 20:49:16;;;;;;;9.20;1.02;;;;;;;20.27;33.92;101854.88;16133641;19;130523;-46
2022/05/04 20:54:45;;;;;;;2.72;0.82;;;;;;;20.27;33.97;101855.75;16132592;19;131459;-49
2022/05/04 21:00:13;;;;;;;2.80;1.08;;;;;;;20.28;34.26;101867.69;16136429;19;129496;-51
2022/05/04 21:05:35;;;;;;;4.18;0.95;;;;;;;20.25;33.81;101863.47;16133952;19;129063;-46
2022/05/04 21:10:57;;;;;;;6.03;1.50;;;;;;;20.25;33.87;101866.25;16136704;19;130624;-51
2022/05/04 21:16:19;;;;;;;1.67;1.10;;;;;;;20.23;33.87;101865.63;16128988;19;129832;-50
2022/05/04 21:21:41;;;;;;;6.20;1.10;;;;;;;20.23;33.71;101875.91;16137655;19;129495;-53
2022/05/04 21:27:03;;;;;;;4.45;0.98;;;;;;;20.21;33.74;101873.34;16135553;19;129594;-51
2022/05/04 21:32:25;;;;;;;2.10;1.00;;;;;;;20.20;33.91;101866.09;16138835;19;129641;-53
2022/05/04 21:37:47;;;;;;;2.75;1.00;;;;;;;20.20;34.07;101871.63;16132422;19;129375;-50
2022/05/04 21:43:09;;;;;;;2.33;0.90;;;;;;;20.23;34.13;101876.75;16136642;19;130906;-53
2022/05/04 21:48:31;;;;;;;3.20;1.02;;;;;;;20.23;34.36;101871.19;16128440;19;129487;-48
2022/05/04 21:53:52;;;;;;;3.10;1.00;;;;;;;20.23;34.30;101882.28;16135812;19;129678;-49
2022/05/04 21:59:16;;;;;;;2.25;1.00;;;;;;;20.23;34.35;101882.28;16135185;19;129930;-48
2022/05/04 22:04:44;;;;;;;5.93;1.23;;;;;;;20.22;33.85;101886.16;16128662;19;131315;-48
2022/05/04 22:10:06;;;;;;;2.00;1.20;;;;;;;20.21;34.21;101889.19;16125952;19;130415;-52
2022/05/04 22:15:28;;;;;;;2.42;1.10;;;;;;;20.21;34.14;101889.19;16125045;19;130066;-49
2022/05/04 22:20:50;;;;;;;2.40;1.40;;;;;;;20.19;33.90;101889.41;16135995;19;129019;-51
2022/05/04 22:26:12;;;;;;;1.70;0.90;;;;;;;20.18;34.02;101896.06;16140969;19;129398;-51
2022/05/04 22:31:34;;;;;;;1.10;0.90;;;;;;;20.16;34.20;101898.22;16150009;19;130744;-51
2022/05/04 22:36:55;;;;;;;1.38;0.93;;;;;;;20.11;33.74;101898.91;16145997;19;129446;-47
2022/05/04 22:42:17;;;;;;;1.60;0.77;;;;;;;20.08;34.23;101902.16;16148719;19;129591;-48
2022/05/04 22:47:39;;;;;;;1.92;1.02;;;;;;;20.08;34.04;101906.84;16149077;19;129206;-47
2022/05/04 22:53:00;;;;;;;3.22;1.25;;;;;;;20.06;33.83;101909.03;16146619;19;128877;-48
2022/05/04 22:58:22;;;;;;;3.13;1.00;;;;;;;20.04;33.97;101908.41;16148282;19;129187;-49
2022/05/04 23:03:44;;;;;;;0.98;0.85;;;;;;;20.02;33.77;101907.78;16144950;19;129544;-52
2022/05/04 23:09:05;;;;;;;1.65;0.95;;;;;;;19.99;34.18;101904.38;16143784;19;129072;-52
2022/05/04 23:14:27;;;;;;;2.25;0.90;;;;;;;19.98;33.97;101911.00;16142359;19;129839;-53
2022/05/04 23:19:49;;;;;;;1.83;0.90;;;;;;;19.96;34.23;101906.75;16146367;19;129413;-50
2022/05/04 23:25:11;;;;;;;2.63;1.08;;;;;;;19.96;34.00;101904.81;16145955;19;129506;-49
2022/05/04 23:30:33;;;;;;;1.60;0.80;;;;;;;19.94;33.98;101901.41;16144448;19;129051;-48
2022/05/04 23:37:25;;;;;;;1.35;0.95;;;;;;;19.92;33.72;101902.75;16141276;19;132088;-53
2022/05/04 23:41:37;;;;;;;1.35;0.60;;;;;;;19.90;33.81;101900.19;16147306;19;130082;-51
2022/05/04 23:46:59;;;;;;;1.73;1.00;;;;;;;19.87;33.88;101895.09;16148068;19;129362;-54
2022/05/04 23:52:21;;;;;;;1.05;0.80;;;;;;;19.87;34.10;101894.28;16145500;19;129213;-49
2022/05/04 23:57:43;;;;;;;0.85;0.63;;;;;;;19.88;33.76;101907.06;16140666;19;129807;-50
